Time;durP1;ratioP1;P1;durP2;ratioP2;P2;SDS_P1;SDS_P2;PMS_P1;PMS_P2;Temp;Humidity;BMP_temperature;BMP_pressure;BME280_temperature;BME280_humidity;BME280_pressure;Samples;Min_cycle;Max_cycle;Signal;HPM_P1;HPM_P2
2024/01/23 00:00:07;;;;;;;7.90;1.30;;;;;;;7.55;100.00;100879.56;6353030;28;20044;-76
2024/01/23 00:03:08;;;;;;;18.92;1.73;;;;;;;7.51;100.00;100883.22;6352817;28;20130;-76
2024/01/23 00:06:10;;;;;;;9.95;2.20;;;;;;;7.42;100.00;100878.34;6352182;28;20047;-76
2024/01/23 00:09:12;;;;;;;17.05;2.45;;;;;;;7.34;100.00;100878.63;6340393;28;20048;-77
2024/01/23 00:12:14;;;;;;;6.35;1.40;;;;;;;7.29;100.00;100878.78;6352595;28;20051;-77
2024/01/23 00:15:15;;;;;;;9.23;1.45;;;;;;;7.20;100.00;100873.06;6352024;28;20078;-76
2024/01/23 00:18:16;;;;;;;12.38;1.67;;;;;;;7.29;100.00;100878.78;6347163;28;20051;-76
2024/01/23 00:21:18;;;;;;;4.47;1.27;;;;;;;7.29;100.00;100875.34;6343683;28;20051;-77
2024/01/23 00:24:20;;;;;;;11.48;1.75;;;;;;;7.23;100.00;100886.88;6327095;22;20071;-71
2024/01/23 00:27:22;;;;;;;11.25;1.85;;;;;;;7.10;100.00;100888.22;6305416;28;20437;-71
2024/01/23 00:30:23;;;;;;;11.60;1.67;;;;;;;7.06;100.00;100879.66;6312220;28;20075;-70
2024/01/23 00:33:25;;;;;;;9.85;1.38;;;;;;;7.01;100.00;100889.41;6318133;28;20048;-70
2024/01/23 00:36:26;;;;;;;19.63;2.33;;;;;;;6.99;100.00;100893.84;6326329;28;20048;-71
2024/01/23 00:39:29;;;;;;;7.28;1.67;;;;;;;6.99;100.00;100896.44;6314435;28;20048;-70
2024/01/23 00:42:30;;;;;;;19.90;2.47;;;;;;;7.04;100.00;100904.13;6325957;28;20056;-71
2024/01/23 00:45:31;;;;;;;17.98;3.15;;;;;;;6.98;100.00;100902.59;6324630;28;20052;-70
2024/01/23 00:48:33;;;;;;;10.68;1.58;;;;;;;7.03;100.00;100908.50;6312175;28;20486;-71
2024/01/23 00:51:34;;;;;;;16.98;1.65;;;;;;;7.13;100.00;100911.66;6326202;28;20083;-70
2024/01/23 00:54:37;;;;;;;9.00;1.88;;;;;;;7.16;100.00;100915.91;6326300;28;20052;-70
2024/01/23 00:57:38;;;;;;;10.82;1.75;;;;;;;7.12;100.00;100936.91;6325777;28;20352;-70
2024/01/23 01:00:44;;;;;;;8.20;1.23;;;;;;;7.06;100.00;100936.28;6326265;28;20059;-71
2024/01/23 01:03:45;;;;;;;16.73;2.00;;;;;;;7.15;100.00;100933.34;6314923;28;20562;-70
2024/01/23 01:06:46;;;;;;;12.30;1.98;;;;;;;7.20;100.00;100936.63;6325581;28;20052;-71
2024/01/23 01:09:49;;;;;;;6.18;1.00;;;;;;;7.15;100.00;100942.94;6326027;28;20052;-71
2024/01/23 01:12:50;;;;;;;8.43;1.23;;;;;;;7.15;100.00;100938.56;6325729;28;20066;-70
2024/01/23 01:15:52;;;;;;;11.52;1.50;;;;;;;7.27;100.00;100939.91;6325224;28;20333;-71
2024/01/23 01:18:53;;;;;;;11.65;2.13;;;;;;;7.27;100.00;100959.03;6325614;28;20059;-71
2024/01/23 01:21:55;;;;;;;12.52;1.45;;;;;;;7.27;100.00;100966.03;6325751;28;20139;-71
2024/01/23 01:24:57;;;;;;;14.40;1.45;;;;;;;7.30;100.00;100971.97;6325398;28;20051;-71
2024/01/23 01:27:59;;;;;;;10.57;1.73;;;;;;;7.26;100.00;100952.09;6325327;28;20048;-71
2024/01/23 01:31:00;;;;;;;11.63;1.40;;;;;;;7.24;100.00;100969.59;6325419;28;20051;-70
2024/01/23 01:34:02;;;;;;;16.00;1.55;;;;;;;7.27;100.00;100976.50;6325173;28;20040;-70
2024/01/23 01:37:04;;;;;;;9.40;1.13;;;;;;;7.19;100.00;100974.16;6321181;28;20083;-70
2024/01/23 01:40:08;;;;;;;7.57;1.00;;;;;;;7.12;100.00;100981.34;6316318;28;20055;-70
2024/01/23 01:43:22;;;;;;;10.57;1.40;;;;;;;7.20;100.00;100993.28;6325043;28;20051;-71
2024/01/23 01:46:26;;;;;;;10.82;1.30;;;;;;;7.11;100.00;100994.47;6324788;28;20363;-70
2024/01/23 01:49:27;;;;;;;9.63;1.75;;;;;;;7.05;100.00;100989.47;6325205;28;20105;-70
2024/01/23 01:52:30;;;;;;;8.88;1.55;;;;;;;7.09;100.00;100984.06;6324989;28;20471;-70
2024/01/23 01:55:33;;;;;;;5.88;1.00;;;;;;;6.97;100.00;100996.72;6325116;28;20055;-70
2024/01/23 01:58:35;;;;;;;18.67;2.10;;;;;;;6.94;100.00;100999.41;6324822;28;20052;-71
2024/01/23 02:01:37;;;;;;;7.75;1.25;;;;;;;7.01;100.00;100988.72;6324520;28;20051;-71
2024/01/23 02:04:39;;;;;;;7.63;1.45;;;;;;;7.03;100.00;100991.25;6324724;28;20068;-71
2024/01/23 02:07:40;;;;;;;14.10;1.50;;;;;;;6.98;100.00;100996.66;6324439;28;20048;-71
2024/01/23 02:10:43;;;;;;;10.43;1.20;;;;;;;7.09;100.00;101004.97;6324931;28;20048;-71
2024/01/23 02:13:44;;;;;;;9.07;1.42;;;;;;;7.11;100.00;101005.75;6324541;28;20330;-71
2024/01/23 02:16:45;;;;;;;7.22;1.38;;;;;;;7.01;100.00;101020.06;6319205;28;20464;-71
2024/01/23 02:19:50;;;;;;;8.02;2.00;;;;;;;7.07;100.00;101014.63;6300006;28;20048;-70
2024/01/23 02:22:52;;;;;;;10.02;1.60;;;;;;;6.93;100.00;101024.69;6299291;28;20425;-71
2024/01/23 02:25:54;;;;;;;8.32;1.13;;;;;;;7.04;100.00;101021.69;6299486;28;20059;-70
2024/01/23 02:28:56;;;;;;;11.93;1.52;;;;;;;6.96;100.00;101028.97;6307319;28;20361;-70
2024/01/23 02:31:57;;;;;;;9.43;1.42;;;;;;;6.96;100.00;101026.34;6322504;28;20059;-70
2024/01/23 02:34:58;;;;;;;14.13;2.13;;;;;;;7.02;100.00;101037.44;6310435;28;20056;-70
2024/01/23 02:38:00;;;;;;;9.48;1.33;;;;;;;6.98;100.00;101035.84;6322031;28;20440;-71
2024/01/23 02:41:03;;;;;;;13.10;1.73;;;;;;;6.92;100.00;101030.81;6324745;28;20067;-71
2024/01/23 02:44:05;;;;;;;8.70;1.02;;;;;;;6.91;100.00;101030.88;6324250;28;20048;-71
2024/01/23 02:47:06;;;;;;;9.75;0.98;;;;;;;6.92;100.00;101036.06;6320347;28;20045;-71
2024/01/23 02:50:08;;;;;;;14.32;1.70;;;;;;;6.92;100.00;101029.97;6315341;28;20084;-71
2024/01/23 02:53:09;;;;;;;6.07;1.02;;;;;;;6.95;100.00;101045.53;6324217;28;20040;-71
2024/01/23 02:56:12;;;;;;;14.40;1.52;;;;;;;6.80;100.00;101062.56;6323952;28;20051;-70
2024/01/23 02:59:16;;;;;;;18.65;1.45;;;;;;;6.88;100.00;101081.47;6324593;28;20059;-70
2024/01/23 03:02:17;;;;;;;10.75;2.10;;;;;;;6.92;100.00;101064.78;6324234;28;20177;-71
2024/01/23 03:05:18;;;;;;;9.82;1.50;;;;;;;7.00;100.00;101061.94;6324369;28;20055;-71
2024/01/23 03:08:22;;;;;;;11.43;1.75;;;;;;;7.01;100.00;101074.09;6318371;28;20049;-70
2024/01/23 03:11:25;;;;;;;9.55;1.10;;;;;;;7.03;100.00;101070.50;6315870;28;20364;-70
2024/01/23 03:14:26;;;;;;;16.05;3.40;;;;;;;6.96;100.00;101082.06;6323015;28;20059;-71
2024/01/23 03:17:28;;;;;;;19.17;1.63;;;;;;;7.03;100.00;101082.72;6313379;28;20098;-70
2024/01/23 03:20:30;;;;;;;8.13;1.67;;;;;;;7.00;100.00;101088.06;6328746;28;20174;-70
2024/01/23 03:23:32;;;;;;;8.45;1.05;;;;;;;7.06;100.00;101087.84;6328100;28;20089;-70
2024/01/23 03:26:34;;;;;;;11.18;1.35;;;;;;;7.09;100.00;101090.38;6303763;28;20048;-72
2024/01/23 03:29:40;;;;;;;7.25;1.13;;;;;;;7.09;100.00;101096.44;6302467;28;20045;-72
2024/01/23 03:32:41;;;;;;;8.82;1.30;;;;;;;7.21;100.00;101112.59;6302633;28;20123;-71
2024/01/23 03:35:43;;;;;;;18.13;1.42;;;;;;;7.20;100.00;101135.28;6302135;28;20071;-70
2024/01/23 03:38:44;;;;;;;9.40;1.10;;;;;;;7.28;100.00;101133.28;6302785;28;20433;-70
2024/01/23 03:41:47;;;;;;;15.52;1.63;;;;;;;7.21;100.00;101149.19;6302964;28;20052;-70
2024/01/23 03:44:48;;;;;;;8.93;1.85;;;;;;;7.23;100.00;101143.03;6301317;28;20367;-71
2024/01/23 03:47:49;;;;;;;8.25;1.40;;;;;;;7.15;100.00;101145.03;6302399;28;20052;-71
2024/01/23 03:50:51;;;;;;;7.20;1.02;;;;;;;7.17;100.00;101160.66;6303009;28;20048;-70
2024/01/23 03:53:52;;;;;;;9.48;1.10;;;;;;;7.19;100.00;101175.41;6302028;28;20421;-71
2024/01/23 03:56:55;;;;;;;4.65;1.30;;;;;;;7.24;100.00;101167.41;6302355;28;20044;-70
2024/01/23 03:59:56;;;;;;;18.00;1.52;;;;;;;7.22;100.00;101184.88;6302467;28;20347;-71
2024/01/23 04:02:58;;;;;;;8.52;1.73;;;;;;;7.20;100.00;101189.31;6302127;28;20349;-69
2024/01/23 04:05:59;;;;;;;9.40;2.65;;;;;;;7.30;100.00;101186.34;6301882;28;20056;-70
2024/01/23 04:09:01;;;;;;;11.10;1.42;;;;;;;7.23;100.00;101189.22;6302265;28;20377;-69
2024/01/23 04:12:04;;;;;;;4.63;0.98;;;;;;;7.21;100.00;101191.88;6302490;28;20127;-70
2024/01/23 04:15:06;;;;;;;11.43;1.70;;;;;;;7.22;100.00;101192.72;6301601;28;20341;-70
2024/01/23 04:18:07;;;;;;;4.45;1.88;;;;;;;7.19;100.00;101198.06;6301657;28;20561;-71
2024/01/23 04:21:08;;;;;;;5.97;1.48;;;;;;;7.17;100.00;101203.31;6302018;28;20052;-71
2024/01/23 04:24:10;;;;;;;11.45;1.92;;;;;;;7.27;100.00;101215.22;6301267;28;20041;-71
2024/01/23 04:27:12;;;;;;;8.82;1.35;;;;;;;7.22;100.00;101209.28;6301551;28;20048;-70
2024/01/23 04:30:14;;;;;;;4.80;1.42;;;;;;;7.31;100.00;101211.63;6301737;28;20482;-70
2024/01/23 04:33:15;;;;;;;9.85;1.48;;;;;;;7.27;100.00;101230.06;6301493;28;20044;-70
2024/01/23 04:36:17;;;;;;;7.35;0.93;;;;;;;7.34;100.00;101227.19;6309578;28;20044;-71
2024/01/23 04:39:19;;;;;;;7.70;1.42;;;;;;;7.26;100.00;101244.00;6301523;28;20084;-70
2024/01/23 04:42:21;;;;;;;5.43;1.42;;;;;;;7.30;100.00;101253.47;6301472;28;20364;-71
2024/01/23 04:45:23;;;;;;;11.50;1.17;;;;;;;7.29;100.00;101273.53;6301277;28;20448;-71
2024/01/23 04:48:24;;;;;;;10.68;1.52;;;;;;;7.30;100.00;101241.25;6300925;28;20055;-72
2024/01/23 04:51:25;;;;;;;14.55;1.90;;;;;;;7.30;100.00;101256.06;6301504;28;20044;-71
2024/01/23 04:54:27;;;;;;;9.32;1.42;;;;;;;7.27;100.00;101277.13;6300738;28;20052;-71
2024/01/23 04:57:31;;;;;;;7.47;1.45;;;;;;;7.25;100.00;101264.06;6300945;28;20044;-71
2024/01/23 05:00:33;;;;;;;17.95;1.83;;;;;;;7.15;100.00;101274.88;6300944;28;20064;-71
2024/01/23 05:03:34;;;;;;;12.95;2.22;;;;;;;7.19;100.00;101302.63;6311730;28;20619;-70
2024/01/23 05:06:35;;;;;;;16.85;1.45;;;;;;;7.21;100.00;101316.50;6299973;28;20056;-71
2024/01/23 05:09:37;;;;;;;15.73;1.98;;;;;;;7.34;100.00;101323.91;6300144;28;20044;-74
2024/01/23 05:12:39;;;;;;;9.30;1.73;;;;;;;7.27;100.00;101332.00;6300019;28;20045;-74
2024/01/23 05:15:41;;;;;;;10.75;1.85;;;;;;;7.36;100.00;101326.50;6297155;28;20626;-74
2024/01/23 05:18:42;;;;;;;8.00;1.63;;;;;;;7.21;100.00;101322.56;6297065;28;20041;-71
2024/01/23 05:21:43;;;;;;;10.35;1.75;;;;;;;7.30;100.00;101332.75;6299758;28;20230;-70
2024/01/23 05:24:45;;;;;;;9.50;2.08;;;;;;;7.35;100.00;101322.16;6299634;28;20041;-71
2024/01/23 05:27:47;;;;;;;13.20;2.65;;;;;;;7.23;100.00;101336.47;6299268;28;20348;-71
2024/01/23 05:30:49;;;;;;;5.50;1.48;;;;;;;7.30;100.00;101343.19;6300008;28;20041;-71
2024/01/23 05:33:50;;;;;;;19.38;1.98;;;;;;;7.27;100.00;101353.78;6299488;28;20044;-71
2024/01/23 05:36:52;;;;;;;13.63;2.00;;;;;;;7.30;100.00;101350.19;6298348;28;20044;-70
2024/01/23 05:39:54;;;;;;;14.23;1.63;;;;;;;7.32;100.00;101366.72;6299660;28;20052;-71
2024/01/23 05:42:57;;;;;;;14.35;1.75;;;;;;;7.27;100.00;101363.38;6299327;28;20049;-71
2024/01/23 05:45:58;;;;;;;13.77;1.88;;;;;;;7.25;100.00;101373.84;6299826;28;20049;-70
2024/01/23 05:48:59;;;;;;;8.38;1.83;;;;;;;7.31;100.00;101368.47;6299941;28;20064;-70
2024/01/23 05:52:01;;;;;;;18.98;2.38;;;;;;;7.31;100.00;101394.63;6300294;28;20136;-70
2024/01/23 05:55:03;;;;;;;18.83;1.98;;;;;;;7.26;100.00;101401.72;6299837;28;20052;-70
2024/01/23 05:58:06;;;;;;;23.15;2.08;;;;;;;7.35;100.00;101406.66;6299769;28;20055;-71
2024/01/23 06:01:07;;;;;;;13.20;2.15;;;;;;;7.42;100.00;101423.06;6300096;28;20084;-70
2024/01/23 06:04:09;;;;;;;15.95;2.88;;;;;;;7.42;100.00;101422.19;6299938;28;20041;-71
2024/01/23 06:07:12;;;;;;;9.10;1.77;;;;;;;7.38;100.00;101432.75;6299420;28;20437;-70
2024/01/23 06:10:13;;;;;;;13.93;2.47;;;;;;;7.26;100.00;101445.31;6299911;28;20052;-70
2024/01/23 06:13:17;;;;;;;16.05;2.35;;;;;;;7.31;100.00;101438.19;6299497;28;20476;-71
2024/01/23 06:16:18;;;;;;;13.25;1.73;;;;;;;7.38;100.00;101447.56;6299287;28;20575;-70
2024/01/23 06:19:19;;;;;;;10.52;1.55;;;;;;;7.41;100.00;101468.41;6299913;28;20049;-71
2024/01/23 06:22:21;;;;;;;14.95;2.00;;;;;;;7.45;100.00;101479.63;6322899;23;20364;-73
2024/01/23 06:25:22;;;;;;;16.20;2.42;;;;;;;7.43;100.00;101469.22;6324693;28;20055;-73
2024/01/23 06:28:25;;;;;;;11.57;1.90;;;;;;;7.35;100.00;101471.19;6324284;28;20471;-72
2024/01/23 06:31:27;;;;;;;12.88;2.30;;;;;;;7.32;100.00;101487.84;6324695;28;20044;-72
2024/01/23 06:34:28;;;;;;;11.88;1.58;;;;;;;7.27;100.00;101492.34;6324477;28;20052;-71
2024/01/23 06:37:30;;;;;;;14.65;1.98;;;;;;;7.39;100.00;101498.97;6323904;28;20048;-73
2024/01/23 06:40:31;;;;;;;19.60;1.75;;;;;;;7.37;100.00;101509.47;6324751;28;20443;-73
2024/01/23 06:43:34;;;;;;;10.43;1.83;;;;;;;7.35;100.00;101506.03;6323770;28;20051;-72
2024/01/23 06:46:35;;;;;;;7.90;2.33;;;;;;;7.36;100.00;101513.00;6325656;28;20044;-72
2024/01/23 06:49:36;;;;;;;14.75;2.05;;;;;;;7.23;100.00;101521.22;6329313;28;20048;-72
2024/01/23 06:52:38;;;;;;;12.38;1.67;;;;;;;7.33;100.00;101514.84;6328944;28;20352;-73
2024/01/23 06:55:39;;;;;;;11.40;1.52;;;;;;;7.24;100.00;101529.00;6328653;28;20321;-73
2024/01/23 06:58:42;;;;;;;11.80;1.35;;;;;;;7.26;100.00;101535.03;6328687;28;20055;-72
2024/01/23 07:01:43;;;;;;;11.63;1.27;;;;;;;7.23;100.00;101537.75;6329039;28;20356;-73
2024/01/23 07:04:45;;;;;;;16.85;1.90;;;;;;;7.24;100.00;101536.00;6328625;28;20044;-72
2024/01/23 07:07:46;;;;;;;11.70;1.67;;;;;;;7.24;100.00;101541.22;6328276;28;20044;-72
2024/01/23 07:10:47;;;;;;;20.00;2.20;;;;;;;7.15;100.00;101559.75;6329251;28;20055;-71
2024/01/23 07:13:51;;;;;;;12.85;1.58;;;;;;;7.12;100.00;101555.47;6328394;28;20054;-72
2024/01/23 07:16:52;;;;;;;10.57;1.73;;;;;;;7.14;100.00;101566.75;6328114;28;20059;-73
2024/01/23 07:19:54;;;;;;;11.82;1.30;;;;;;;7.09;100.00;101576.47;6328745;28;20052;-72
2024/01/23 07:22:56;;;;;;;17.95;2.20;;;;;;;7.15;100.00;101593.75;6326085;28;20194;-72
2024/01/23 07:25:58;;;;;;;9.93;1.83;;;;;;;7.16;100.00;101592.84;6325667;28;20044;-72
2024/01/23 07:29:02;;;;;;;16.58;1.88;;;;;;;7.12;100.00;101599.91;6327932;28;20074;-72
2024/01/23 07:32:04;;;;;;;4.72;1.25;;;;;;;7.17;100.00;101599.78;6327145;28;20139;-72
2024/01/23 07:35:06;;;;;;;10.25;1.50;;;;;;;7.23;100.00;101597.03;6328051;28;20048;-72
2024/01/23 07:38:10;;;;;;;10.43;1.67;;;;;;;7.07;100.00;101605.25;6327728;28;20056;-71
2024/01/23 07:41:12;;;;;;;9.63;2.13;;;;;;;7.03;100.00;101619.28;6328324;28;20079;-72
2024/01/23 07:44:14;;;;;;;15.40;2.10;;;;;;;7.12;100.00;101626.88;6327748;28;20055;-73
2024/01/23 07:47:16;;;;;;;9.48;1.70;;;;;;;7.07;100.00;101626.16;6327684;28;20051;-72
2024/01/23 07:50:18;;;;;;;20.65;2.42;;;;;;;7.05;100.00;101645.38;6327929;28;20048;-73
2024/01/23 07:53:19;;;;;;;15.98;1.70;;;;;;;7.09;100.00;101631.34;6327791;28;20055;-72
2024/01/23 07:56:20;;;;;;;9.60;2.53;;;;;;;6.96;100.00;101664.75;6327168;28;20364;-72
2024/01/23 07:59:23;;;;;;;18.02;2.38;;;;;;;7.11;100.00;101659.16;6327086;28;20048;-72
2024/01/23 08:02:25;;;;;;;17.10;3.22;;;;;;;7.13;100.00;101664.38;6327580;28;20452;-73
2024/01/23 08:05:27;;;;;;;21.48;2.40;;;;;;;7.21;100.00;101679.84;6327225;28;20349;-73
2024/01/23 08:08:29;;;;;;;18.48;3.15;;;;;;;7.10;100.00;101690.56;6327035;28;20044;-72
2024/01/23 08:11:31;;;;;;;21.73;2.42;;;;;;;7.09;100.00;101694.09;6327682;28;20448;-72
2024/01/23 08:14:33;;;;;;;15.40;2.30;;;;;;;7.07;100.00;101709.78;6327120;28;20048;-73
2024/01/23 08:17:34;;;;;;;17.45;3.10;;;;;;;7.05;100.00;101718.56;6326760;28;20059;-72
2024/01/23 08:20:36;;;;;;;25.50;2.40;;;;;;;7.09;100.00;101715.00;6327395;28;20052;-72
2024/01/23 08:23:37;;;;;;;20.92;2.95;;;;;;;7.02;100.00;101722.09;6326612;28;20055;-72
2024/01/23 08:26:39;;;;;;;19.98;1.95;;;;;;;7.11;100.00;101724.50;6326872;28;20055;-72
2024/01/23 08:29:41;;;;;;;18.88;1.60;;;;;;;7.17;100.00;101743.53;6326941;28;20356;-72
2024/01/23 08:32:43;;;;;;;13.57;3.08;;;;;;;7.28;100.00;101744.16;6323420;28;20051;-76
2024/01/23 08:35:44;;;;;;;17.02;2.15;;;;;;;7.24;100.00;101772.13;6323796;28;20440;-73
2024/01/23 08:38:45;;;;;;;15.25;2.78;;;;;;;7.28;100.00;101762.47;6321530;28;20055;-73
2024/01/23 08:41:46;;;;;;;22.27;3.00;;;;;;;7.35;100.00;101771.88;6323899;28;20047;-73
2024/01/23 08:44:50;;;;;;;12.10;2.42;;;;;;;7.19;100.00;101767.91;6330630;28;20124;-73
2024/01/23 08:47:51;;;;;;;21.50;3.17;;;;;;;7.36;100.00;101777.09;6323253;28;20044;-73
2024/01/23 08:50:52;;;;;;;18.90;2.75;;;;;;;7.32;100.00;101806.81;6325065;28;20048;-71
2024/01/23 08:53:54;;;;;;;12.13;2.05;;;;;;;7.44;100.00;101803.03;6325763;28;20066;-72
2024/01/23 08:56:56;;;;;;;26.98;2.05;;;;;;;7.38;100.00;101800.56;6325846;28;20158;-73
2024/01/23 08:59:59;;;;;;;22.45;2.22;;;;;;;7.50;100.00;101820.38;6332396;28;20075;-72
2024/01/23 09:03:00;;;;;;;19.23;2.42;;;;;;;7.38;100.00;101817.13;6318415;28;20044;-72
2024/01/23 09:06:04;;;;;;;16.50;2.55;;;;;;;7.46;100.00;101816.97;6325194;28;20036;-71
2024/01/23 09:09:05;;;;;;;7.95;1.67;;;;;;;7.34;100.00;101830.31;6318166;28;20152;-71
2024/01/23 09:12:07;;;;;;;11.27;2.55;;;;;;;7.43;100.00;101826.63;6326142;28;20044;-71
2024/01/23 09:15:10;;;;;;;16.55;2.42;;;;;;;7.38;100.00;101834.56;6325168;28;20097;-71
2024/01/23 09:18:11;;;;;;;13.02;2.33;;;;;;;7.42;100.00;101845.84;6323926;28;20663;-73
2024/01/23 09:21:13;;;;;;;12.95;2.75;;;;;;;7.32;100.00;101845.19;6324618;28;20456;-71
2024/01/23 09:24:14;;;;;;;20.08;2.53;;;;;;;7.28;100.00;101851.38;6324861;28;20044;-71
2024/01/23 09:27:16;;;;;;;21.67;2.30;;;;;;;7.36;100.00;101850.31;6325199;28;20048;-73
2024/01/23 09:30:19;;;;;;;14.98;2.67;;;;;;;7.38;100.00;101860.72;6325209;28;20428;-73
2024/01/23 09:33:20;;;;;;;16.10;2.50;;;;;;;7.25;100.00;101862.75;6300397;28;20056;-73
2024/01/23 09:36:22;;;;;;;11.88;1.95;;;;;;;7.26;100.00;101861.84;6324136;28;20067;-73
2024/01/23 09:39:23;;;;;;;11.63;1.63;;;;;;;7.25;100.00;101878.44;6325301;28;20109;-73
2024/01/23 09:42:26;;;;;;;22.48;2.95;;;;;;;7.20;100.00;101868.97;6325107;28;20052;-73
2024/01/23 09:45:30;;;;;;;19.25;3.72;;;;;;;7.29;100.00;101876.63;6316391;28;20046;-73
2024/01/23 09:48:32;;;;;;;19.80;2.53;;;;;;;7.36;100.00;101884.31;6321171;28;20355;-80
2024/01/23 09:51:35;;;;;;;17.63;3.08;;;;;;;7.35;100.00;101885.16;6323208;28;20051;-73
2024/01/23 09:54:36;;;;;;;13.95;2.45;;;;;;;7.43;100.00;101878.94;6324880;28;20141;-73
2024/01/23 09:57:40;;;;;;;24.52;2.97;;;;;;;7.33;100.00;101879.13;6324500;28;20044;-73
2024/01/23 10:00:42;;;;;;;30.08;2.70;;;;;;;7.39;100.00;101891.19;6324716;28;20079;-74
2024/01/23 10:03:48;;;;;;;19.20;3.28;;;;;;;7.33;100.00;101892.19;6324729;28;20048;-73
2024/01/23 10:06:50;;;;;;;31.05;2.70;;;;;;;7.34;100.00;101891.31;6324402;28;20416;-73
2024/01/23 10:09:51;;;;;;;25.70;3.17;;;;;;;7.40;100.00;101907.75;6324943;28;20052;-71
2024/01/23 10:12:52;;;;;;;17.85;2.05;;;;;;;7.35;100.00;101900.84;6324869;28;20052;-71
2024/01/23 10:15:55;;;;;;;20.88;2.90;;;;;;;7.47;100.00;101909.34;6324338;28;20071;-73
2024/01/23 10:18:57;;;;;;;28.98;3.15;;;;;;;7.34;100.00;101917.44;6325105;28;20141;-73
2024/01/23 10:21:58;;;;;;;18.88;3.30;;;;;;;7.36;100.00;101927.91;6327336;28;20048;-71
2024/01/23 10:25:00;;;;;;;15.70;2.35;;;;;;;7.41;100.00;101930.41;6329547;28;20041;-73
2024/01/23 10:28:01;;;;;;;16.92;2.80;;;;;;;7.48;100.00;101926.75;6329476;28;20052;-73
2024/01/23 10:31:04;;;;;;;22.38;3.33;;;;;;;7.43;100.00;101929.47;6329788;28;20060;-73
2024/01/23 10:34:06;;;;;;;20.10;3.65;;;;;;;7.57;100.00;101922.19;6329592;28;20051;-73
2024/01/23 10:37:07;;;;;;;24.20;2.83;;;;;;;7.66;100.00;101925.50;6328543;28;20125;-73
2024/01/23 10:40:12;;;;;;;20.08;4.10;;;;;;;7.53;100.00;101928.38;6329340;28;20364;-71
2024/01/23 10:43:15;;;;;;;21.05;3.00;;;;;;;7.73;100.00;101916.63;6328759;28;20067;-73
2024/01/23 10:46:17;;;;;;;33.70;3.83;;;;;;;7.84;100.00;101918.09;6328869;28;20352;-71
2024/01/23 10:49:19;;;;;;;23.02;2.67;;;;;;;7.75;100.00;101914.81;6337424;28;20055;-71
2024/01/23 10:52:23;;;;;;;18.35;2.70;;;;;;;7.95;100.00;101909.13;6354826;28;20192;-73
2024/01/23 10:55:27;;;;;;;16.88;2.35;;;;;;;8.03;100.00;101899.34;6354314;28;20051;-73
2024/01/23 10:58:33;;;;;;;22.95;3.53;;;;;;;8.05;100.00;101897.56;6340635;28;20052;-72
2024/01/23 11:01:38;;;;;;;23.67;2.72;;;;;;;7.84;100.00;101880.59;6321550;28;20593;-73
2024/01/23 11:04:40;;;;;;;16.45;2.53;;;;;;;7.83;100.00;101884.13;6325121;28;20056;-73
2024/01/23 11:07:47;;;;;;;15.40;2.35;;;;;;;7.87;100.00;101894.47;6327857;28;20437;-73
2024/01/23 11:10:55;;;;;;;17.42;2.03;;;;;;;7.92;100.00;101912.69;6319612;28;20079;-74
2024/01/23 11:14:01;;;;;;;22.00;3.65;;;;;;;7.99;100.00;101911.63;6327805;28;20447;-73
2024/01/23 11:17:08;;;;;;;9.68;2.85;;;;;;;8.02;100.00;101914.19;6320497;28;20044;-74
2024/01/23 11:20:13;;;;;;;14.23;2.45;;;;;;;8.00;100.00;101926.47;6325462;28;20047;-73
2024/01/23 11:23:16;;;;;;;11.98;2.45;;;;;;;7.86;100.00;101921.53;6327968;28;20048;-71
2024/01/23 11:26:20;;;;;;;15.52;3.10;;;;;;;7.85;100.00;101932.03;6326813;28;20036;-71
2024/01/23 11:29:21;;;;;;;12.73;2.45;;;;;;;7.77;100.00;101923.53;6327372;28;20134;-71
2024/01/23 11:32:26;;;;;;;12.45;2.90;;;;;;;7.77;100.00;101923.53;6323873;28;21255;-72
2024/01/23 11:35:27;;;;;;;13.75;2.83;;;;;;;7.79;100.00;101934.78;6322666;28;20348;-72
2024/01/23 11:38:41;;;;;;;15.18;2.17;;;;;;;7.58;100.00;101931.75;6326970;28;20455;-71
2024/01/23 11:41:48;;;;;;;15.55;2.92;;;;;;;7.74;100.00;101936.66;6327170;28;20390;-71
2024/01/23 11:45:22;;;;;;;18.00;2.20;;;;;;;7.79;100.00;101943.50;6325385;28;20051;-72
2024/01/23 11:48:25;;;;;;;9.23;1.58;;;;;;;7.68;100.00;101931.56;6326877;28;20466;-72
2024/01/23 11:51:29;;;;;;;19.40;2.45;;;;;;;7.66;100.00;101933.34;6324736;28;20452;-73
2024/01/23 11:54:30;;;;;;;15.10;2.85;;;;;;;7.65;100.00;101937.72;6327187;28;20132;-71
2024/01/23 11:57:33;;;;;;;19.80;2.80;;;;;;;7.67;100.00;101942.91;6326398;28;20048;-72
2024/01/23 12:00:35;;;;;;;18.70;2.63;;;;;;;7.81;100.00;101928.66;6327026;28;20044;-72
2024/01/23 12:03:45;;;;;;;17.00;2.67;;;;;;;7.84;100.00;101930.31;6326700;28;20044;-73
2024/01/23 12:06:47;;;;;;;13.93;2.70;;;;;;;8.00;100.00;101921.22;6323885;28;20051;-73
2024/01/23 12:09:49;;;;;;;18.67;2.45;;;;;;;8.01;100.00;101924.69;6326664;28;20063;-73
2024/01/23 12:12:52;;;;;;;8.60;1.88;;;;;;;7.98;100.00;101930.84;6326154;28;20352;-73
2024/01/23 12:15:54;;;;;;;17.45;2.17;;;;;;;7.87;100.00;101943.34;6325906;28;20403;-72
2024/01/23 12:18:57;;;;;;;24.80;2.28;;;;;;;7.86;100.00;101928.53;6326530;28;20056;-72
2024/01/23 12:21:59;;;;;;;23.85;3.30;;;;;;;8.02;100.00;101936.88;6325965;28;20044;-74
2024/01/23 12:25:00;;;;;;;23.58;3.35;;;;;;;8.03;100.00;101928.97;6325786;28;20048;-73
2024/01/23 12:28:02;;;;;;;19.25;2.45;;;;;;;8.00;100.00;101933.44;6325780;28;20079;-72
2024/01/23 12:31:11;;;;;;;19.02;2.58;;;;;;;8.09;100.00;101922.75;6326260;28;20052;-74
2024/01/23 12:34:13;;;;;;;21.08;3.13;;;;;;;8.12;100.00;101930.53;6324600;28;20055;-73
2024/01/23 12:37:16;;;;;;;15.98;3.33;;;;;;;7.86;100.00;101918.06;6325331;28;20044;-72
2024/01/23 12:40:17;;;;;;;11.95;2.25;;;;;;;7.97;100.00;101920.44;6326292;28;20124;-73
2024/01/23 12:43:19;;;;;;;27.75;2.92;;;;;;;7.97;100.00;101904.72;6325729;28;20047;-73
2024/01/23 12:46:21;;;;;;;17.23;2.42;;;;;;;7.99;100.00;101901.16;6324775;28;20036;-72
2024/01/23 12:49:24;;;;;;;18.73;3.08;;;;;;;7.97;100.00;101895.09;6325928;28;20508;-73
2024/01/23 12:52:25;;;;;;;20.02;2.85;;;;;;;7.94;100.00;101889.09;6323248;28;20424;-72
2024/01/23 12:55:28;;;;;;;15.25;2.17;;;;;;;7.86;100.00;101884.06;6325455;28;20348;-73
2024/01/23 12:58:29;;;;;;;24.92;3.33;;;;;;;8.00;100.00;101892.44;6324908;28;20043;-73
2024/01/23 13:01:30;;;;;;;18.48;2.35;;;;;;;7.96;100.00;101908.25;6325813;28;20048;-72
2024/01/23 13:04:33;;;;;;;19.92;2.13;;;;;;;7.86;100.00;101899.75;6325107;28;20055;-73
2024/01/23 13:07:35;;;;;;;17.70;2.55;;;;;;;7.85;100.00;101916.31;6324569;28;20040;-73
2024/01/23 13:10:36;;;;;;;15.48;2.75;;;;;;;7.91;100.00;101910.97;6325443;28;20051;-73
2024/01/23 13:13:38;;;;;;;15.90;2.08;;;;;;;7.81;100.00;101909.44;6325883;28;20459;-73
2024/01/23 13:16:39;;;;;;;15.98;2.30;;;;;;;7.98;100.00;101915.16;6325323;28;20044;-73
2024/01/23 13:19:42;;;;;;;16.42;2.38;;;;;;;8.21;100.00;101905.88;6325333;28;20144;-73
2024/01/23 13:22:44;;;;;;;16.65;1.75;;;;;;;8.18;100.00;101926.91;6325192;28;20444;-74
2024/01/23 13:25:46;;;;;;;10.68;2.00;;;;;;;7.88;100.00;101917.13;6325323;28;20048;-73
2024/01/23 13:28:48;;;;;;;12.63;1.88;;;;;;;8.03;100.00;101921.13;6325575;28;20086;-72
2024/01/23 13:31:50;;;;;;;16.88;2.30;;;;;;;8.17;100.00;101914.69;6325432;28;20048;-73
2024/01/23 13:34:53;;;;;;;27.60;4.07;;;;;;;8.15;100.00;101919.97;6322984;28;20522;-73
2024/01/23 13:37:55;;;;;;;17.75;2.72;;;;;;;8.11;100.00;101911.34;6323235;28;20048;-73
2024/01/23 13:40:56;;;;;;;12.02;2.80;;;;;;;8.11;100.00;101924.44;6325308;28;20080;-73
2024/01/23 13:43:58;;;;;;;20.50;2.42;;;;;;;8.18;100.00;101924.31;6324717;28;20097;-73
2024/01/23 13:47:00;;;;;;;14.80;1.95;;;;;;;8.16;100.00;101923.47;6323178;28;20047;-73
2024/01/23 13:50:04;;;;;;;23.02;3.22;;;;;;;8.15;100.00;101922.59;6325205;28;20048;-73
2024/01/23 13:53:06;;;;;;;18.13;3.17;;;;;;;8.18;100.00;101926.91;6324719;28;20345;-73
2024/01/23 13:56:07;;;;;;;21.95;3.70;;;;;;;8.20;100.00;101927.72;6323918;28;20048;-73
2024/01/23 13:59:09;;;;;;;25.17;3.75;;;;;;;8.29;100.00;101935.34;6324846;28;20356;-73